Time;durP1;ratioP1;P1;durP2;ratioP2;P2;SDS_P1;SDS_P2;PMS_P1;PMS_P2;Temp;Humidity;BMP_temperature;BMP_pressure;BME280_temperature;BME280_humidity;BME280_pressure;Samples;Min_cycle;Max_cycle;Signal;HPM_P1;HPM_P2
2022/03/14 00:01:21;;;;;;;5.25;4.70;;;9.50;99.90;;;;;;5071172;28;20029;-51
2022/03/14 00:03:53;;;;;;;6.70;5.47;;;9.40;99.90;;;;;;5071314;28;20528;-51
2022/03/14 00:06:20;;;;;;;5.75;4.88;;;9.40;99.90;;;;;;5070935;28;20059;-51
2022/03/14 00:08:46;;;;;;;5.72;5.22;;;9.40;99.90;;;;;;5071405;28;20021;-51
2022/03/14 00:11:16;;;;;;;6.55;5.80;;;9.30;99.90;;;;;;5070786;28;20151;-49
2022/03/14 00:13:44;;;;;;;6.13;5.47;;;9.30;99.90;;;;;;5070751;28;20028;-51
2022/03/14 00:16:13;;;;;;;6.95;5.75;;;9.30;99.90;;;;;;5071906;28;20028;-51
2022/03/14 00:18:40;;;;;;;5.43;4.93;;;9.20;99.90;;;;;;5071841;28;20420;-51
2022/03/14 00:21:07;;;;;;;7.47;5.63;;;9.20;99.90;;;;;;5069148;28;20569;-52
2022/03/14 00:23:33;;;;;;;6.47;5.72;;;9.20;99.90;;;;;;5071853;28;20046;-50
2022/03/14 00:25:59;;;;;;;7.55;6.32;;;9.10;99.90;;;;;;5072228;28;20078;-50
2022/03/14 00:28:25;;;;;;;7.32;6.25;;;9.10;99.90;;;;;;5071443;28;20073;-50
2022/03/14 00:30:50;;;;;;;6.45;5.85;;;9.00;99.90;;;;;;5070048;28;20051;-50
2022/03/14 00:33:16;;;;;;;7.85;6.88;;;9.00;99.90;;;;;;5070870;28;20533;-49
2022/03/14 00:35:41;;;;;;;7.40;6.63;;;9.00;99.90;;;;;;5071128;28;20052;-49
2022/03/14 00:38:07;;;;;;;7.35;6.68;;;9.00;99.90;;;;;;5070945;28;20101;-49
2022/03/14 00:40:33;;;;;;;7.43;6.75;;;9.00;99.90;;;;;;5070869;28;20029;-49
2022/03/14 00:43:01;;;;;;;7.85;7.13;;;8.90;99.90;;;;;;5070898;28;20029;-50
2022/03/14 00:45:26;;;;;;;8.95;7.90;;;8.90;99.90;;;;;;5071004;28;20047;-49
2022/03/14 00:47:52;;;;;;;8.18;7.07;;;8.90;99.90;;;;;;5072585;28;20017;-49
2022/03/14 00:50:18;;;;;;;7.82;7.13;;;8.90;99.90;;;;;;5070455;28;20039;-49
2022/03/14 00:52:44;;;;;;;8.25;7.45;;;8.90;99.90;;;;;;5071097;28;20032;-49
2022/03/14 00:55:09;;;;;;;8.13;7.32;;;8.90;99.90;;;;;;5071192;28;20032;-49
2022/03/14 00:57:35;;;;;;;8.95;8.05;;;8.90;99.90;;;;;;5069854;28;20043;-50
2022/03/14 01:00:01;;;;;;;9.20;8.18;;;8.90;99.90;;;;;;5070376;28;20443;-50
2022/03/14 01:02:27;;;;;;;9.27;8.38;;;8.90;99.90;;;;;;5069828;28;20103;-50
2022/03/14 01:04:52;;;;;;;9.38;8.25;;;8.80;99.90;;;;;;5070436;28;20059;-50
2022/03/14 01:07:18;;;;;;;9.55;8.52;;;8.80;99.90;;;;;;5070465;28;20557;-50
2022/03/14 01:09:43;;;;;;;11.15;8.38;;;8.80;99.90;;;;;;5070989;28;20424;-49
2022/03/14 01:12:09;;;;;;;12.63;9.52;;;8.80;99.90;;;;;;5071358;28;20021;-50
2022/03/14 01:14:35;;;;;;;10.07;8.98;;;8.80;99.90;;;;;;5071042;28;20028;-51
2022/03/14 01:17:01;;;;;;;9.82;8.82;;;8.80;99.90;;;;;;5071308;28;20091;-50
2022/03/14 01:19:27;;;;;;;10.50;9.40;;;8.80;99.90;;;;;;5071005;28;20067;-50
2022/03/14 01:21:52;;;;;;;10.18;9.07;;;8.80;99.90;;;;;;5070579;28;20050;-50
2022/03/14 01:24:18;;;;;;;9.45;8.23;;;8.80;99.90;;;;;;5069040;28;20025;-50
2022/03/14 01:26:44;;;;;;;9.90;8.90;;;8.80;99.90;;;;;;5070628;28;20055;-50
2022/03/14 01:29:10;;;;;;;9.70;8.70;;;8.80;99.90;;;;;;5070464;28;20029;-50
2022/03/14 01:31:36;;;;;;;9.52;8.55;;;8.80;99.90;;;;;;5070923;28;20489;-50
2022/03/14 01:34:03;;;;;;;9.77;8.73;;;8.80;99.90;;;;;;5069919;28;20233;-50
2022/03/14 01:36:29;;;;;;;10.32;8.48;;;8.70;99.90;;;;;;5070402;28;20401;-51
2022/03/14 01:38:55;;;;;;;10.10;9.00;;;8.70;99.90;;;;;;5070493;28;20508;-51
2022/03/14 01:41:22;;;;;;;10.55;8.85;;;8.70;99.90;;;;;;5070183;28;20035;-51
2022/03/14 01:43:49;;;;;;;9.55;8.65;;;8.70;99.90;;;;;;5073905;28;20029;-51
2022/03/14 01:46:16;;;;;;;11.65;8.93;;;8.70;99.90;;;;;;5073419;28;20021;-50
2022/03/14 01:48:43;;;;;;;11.52;10.05;;;8.70;99.90;;;;;;5073540;28;20024;-50
2022/03/14 01:51:09;;;;;;;11.48;9.40;;;8.80;99.90;;;;;;5073581;28;20024;-50
2022/03/14 01:53:35;;;;;;;10.77;9.65;;;8.70;99.90;;;;;;5072222;28;20074;-50
2022/03/14 01:56:01;;;;;;;12.80;10.00;;;8.70;99.90;;;;;;5074065;28;20031;-52
2022/03/14 01:58:26;;;;;;;10.55;9.40;;;8.70;99.90;;;;;;5074484;28;20135;-51
2022/03/14 02:00:52;;;;;;;11.30;9.18;;;8.80;99.90;;;;;;5074214;28;20547;-52
2022/03/14 02:03:18;;;;;;;14.13;10.30;;;8.80;99.90;;;;;;5074329;28;20024;-51
2022/03/14 02:05:45;;;;;;;14.80;11.10;;;8.80;99.90;;;;;;5074798;28;20482;-51
2022/03/14 02:08:11;;;;;;;17.27;11.63;;;8.80;99.90;;;;;;5074602;28;20532;-51
2022/03/14 02:10:38;;;;;;;14.23;11.98;;;8.70;99.90;;;;;;5074327;28;20063;-50
2022/03/14 02:13:08;;;;;;;15.85;11.82;;;8.70;99.90;;;;;;5074003;28;20024;-51
2022/03/14 02:15:41;;;;;;;16.38;11.98;;;8.70;99.90;;;;;;5073877;28;20070;-51
2022/03/14 02:18:06;;;;;;;16.73;12.48;;;8.70;99.90;;;;;;5072940;28;20435;-51
2022/03/14 02:20:32;;;;;;;16.85;12.65;;;8.70;99.90;;;;;;5073592;28;20085;-51
2022/03/14 02:22:58;;;;;;;15.68;12.60;;;8.70;99.90;;;;;;5073024;28;20028;-50
2022/03/14 02:25:24;;;;;;;17.95;13.63;;;8.70;99.90;;;;;;5073000;28;20362;-49
2022/03/14 02:27:50;;;;;;;15.93;13.70;;;8.60;99.90;;;;;;5073359;28;20495;-50
2022/03/14 02:30:16;;;;;;;15.98;13.45;;;8.50;99.90;;;;;;5072945;28;20025;-50
2022/03/14 02:32:42;;;;;;;16.00;13.50;;;8.50;99.90;;;;;;5073052;28;20043;-50
2022/03/14 02:35:11;;;;;;;16.40;14.63;;;8.40;99.90;;;;;;5073270;28;20024;-50
2022/03/14 02:37:38;;;;;;;19.55;14.52;;;8.40;99.90;;;;;;5073326;28;20030;-50
2022/03/14 02:40:06;;;;;;;19.00;14.88;;;8.40;99.90;;;;;;5072404;28;20033;-50
2022/03/14 02:42:32;;;;;;;18.52;14.70;;;8.50;99.90;;;;;;5072958;28;20073;-51
2022/03/14 02:44:59;;;;;;;18.55;14.85;;;8.50;99.90;;;;;;5072798;28;20409;-51
2022/03/14 02:47:24;;;;;;;16.65;14.32;;;8.50;99.90;;;;;;5072871;28;20021;-51
2022/03/14 02:49:50;;;;;;;20.50;15.55;;;8.60;99.90;;;;;;5072514;28;20422;-51
2022/03/14 02:52:16;;;;;;;20.30;15.50;;;8.50;99.90;;;;;;5072125;28;20013;-51
2022/03/14 02:54:42;;;;;;;18.33;15.75;;;8.60;99.90;;;;;;5070880;28;20031;-51
2022/03/14 02:57:09;;;;;;;21.25;15.65;;;8.60;99.90;;;;;;5072124;28;20024;-51
2022/03/14 02:59:35;;;;;;;19.67;16.20;;;8.60;99.90;;;;;;5071950;28;20074;-51
2022/03/14 03:02:01;;;;;;;20.75;17.33;;;8.70;99.90;;;;;;5072657;28;20162;-51
2022/03/14 03:04:27;;;;;;;23.10;16.73;;;8.70;99.90;;;;;;5072851;28;20032;-50
2022/03/14 03:06:57;;;;;;;20.88;17.08;;;8.70;99.90;;;;;;5072494;28;20506;-50
2022/03/14 03:09:26;;;;;;;21.30;15.85;;;8.60;99.90;;;;;;5072819;28;20030;-51
2022/03/14 03:11:53;;;;;;;25.55;18.23;;;8.70;99.90;;;;;;5071023;28;20552;-51
2022/03/14 03:14:18;;;;;;;28.35;18.40;;;8.70;99.90;;;;;;5072287;28;20031;-50
2022/03/14 03:16:44;;;;;;;24.48;18.83;;;8.70;99.90;;;;;;5072526;28;20399;-50
2022/03/14 03:19:10;;;;;;;27.45;19.45;;;8.70;99.90;;;;;;5072047;28;20031;-50
2022/03/14 03:21:39;;;;;;;23.67;19.73;;;8.70;99.90;;;;;;5071281;28;20433;-50
2022/03/14 03:24:09;;;;;;;29.60;20.17;;;8.70;99.90;;;;;;5069859;28;20025;-50
2022/03/14 03:26:38;;;;;;;27.92;19.45;;;8.80;99.90;;;;;;5071790;28;20078;-51
2022/03/14 03:29:05;;;;;;;28.63;20.30;;;8.80;99.90;;;;;;5071824;28;20109;-51
2022/03/14 03:31:31;;;;;;;26.63;19.92;;;8.80;99.90;;;;;;5072030;28;20021;-51
2022/03/14 03:33:57;;;;;;;30.40;20.70;;;8.80;99.90;;;;;;5071597;28;20024;-51
2022/03/14 03:36:23;;;;;;;26.08;18.35;;;8.80;99.90;;;;;;5071565;28;20033;-51
2022/03/14 03:38:49;;;;;;;30.23;19.73;;;8.80;99.90;;;;;;5071748;28;20020;-51
2022/03/14 03:41:14;;;;;;;26.38;18.70;;;8.90;99.90;;;;;;5071222;28;20407;-51
2022/03/14 03:43:40;;;;;;;26.80;19.10;;;8.80;99.90;;;;;;5071274;28;20032;-51
2022/03/14 03:46:06;;;;;;;24.25;18.90;;;8.80;99.90;;;;;;5071811;28;20028;-50
2022/03/14 03:48:32;;;;;;;29.85;20.23;;;8.80;99.90;;;;;;5070987;28;20086;-50
2022/03/14 03:50:57;;;;;;;29.13;19.90;;;8.80;99.90;;;;;;5071057;28;20028;-50
2022/03/14 03:53:23;;;;;;;30.45;19.60;;;8.70;99.90;;;;;;5072025;28;20031;-50
2022/03/14 03:55:49;;;;;;;29.98;19.85;;;8.80;99.90;;;;;;5071809;28;20032;-51
2022/03/14 03:58:15;;;;;;;28.55;19.25;;;8.80;99.90;;;;;;5072249;28;20028;-50
2022/03/14 04:00:41;;;;;;;31.67;19.27;;;8.80;99.90;;;;;;5071199;28;20021;-51
2022/03/14 04:03:08;;;;;;;30.35;19.02;;;8.80;99.90;;;;;;5069647;28;20036;-51
2022/03/14 04:05:39;;;;;;;24.73;18.02;;;8.80;99.90;;;;;;5070799;28;20445;-51
2022/03/14 04:08:08;;;;;;;28.90;18.92;;;8.80;99.90;;;;;;5069309;28;20044;-50
2022/03/14 04:10:34;;;;;;;23.95;18.50;;;8.70;99.90;;;;;;5070743;28;20048;-50
2022/03/14 04:12:59;;;;;;;28.42;19.05;;;8.70;99.90;;;;;;5071537;28;20066;-51
2022/03/14 04:15:27;;;;;;;22.80;18.17;;;8.80;99.90;;;;;;5071050;28;20025;-50
2022/03/14 04:17:57;;;;;;;26.63;18.02;;;8.80;99.90;;;;;;5071150;28;20028;-51
2022/03/14 04:20:23;;;;;;;27.08;18.70;;;8.70;99.90;;;;;;5068915;28;20027;-51
2022/03/14 04:22:50;;;;;;;27.25;19.42;;;8.70;99.90;;;;;;5070914;28;20024;-51
2022/03/14 04:25:15;;;;;;;24.65;19.02;;;8.70;99.90;;;;;;5071328;28;20021;-50
2022/03/14 04:27:41;;;;;;;25.83;18.85;;;8.80;99.90;;;;;;5071188;28;20052;-50
2022/03/14 04:30:08;;;;;;;29.05;19.08;;;8.70;99.90;;;;;;5070786;28;20028;-50
2022/03/14 04:32:33;;;;;;;26.65;18.38;;;8.70;99.90;;;;;;5070779;28;20063;-50
2022/03/14 04:34:59;;;;;;;29.42;19.70;;;8.80;99.90;;;;;;5071486;28;20028;-50
2022/03/14 04:37:25;;;;;;;33.65;20.20;;;8.80;99.90;;;;;;5071501;28;20336;-50
2022/03/14 04:39:51;;;;;;;25.73;18.60;;;8.80;99.90;;;;;;5071571;28;20155;-51
2022/03/14 04:42:20;;;;;;;25.13;18.70;;;8.90;99.90;;;;;;5070155;28;20056;-51
2022/03/14 04:44:49;;;;;;;23.30;17.58;;;8.80;99.90;;;;;;5070296;28;20028;-51
2022/03/14 04:47:15;;;;;;;26.05;18.92;;;8.80;99.90;;;;;;5071046;28;20074;-51
2022/03/14 04:49:40;;;;;;;24.92;17.02;;;8.80;99.90;;;;;;5070095;28;20048;-51
2022/03/14 04:52:06;;;;;;;24.35;17.88;;;8.80;99.90;;;;;;5070814;28;20036;-51
2022/03/14 04:54:32;;;;;;;26.77;17.85;;;8.80;99.90;;;;;;5071593;28;20033;-51
2022/03/14 04:56:57;;;;;;;23.95;17.25;;;8.80;99.90;;;;;;5070682;28;20032;-51
2022/03/14 04:59:23;;;;;;;27.95;18.25;;;8.80;99.90;;;;;;5069454;28;20024;-51
2022/03/14 05:01:48;;;;;;;24.55;17.55;;;8.90;99.90;;;;;;5070724;28;20024;-50
2022/03/14 05:04:14;;;;;;;22.98;15.93;;;8.90;99.90;;;;;;5070937;28;20482;-51
2022/03/14 05:06:40;;;;;;;26.08;16.23;;;9.00;99.90;;;;;;5071692;28;20040;-50
2022/03/14 05:09:06;;;;;;;23.25;16.45;;;9.00;99.90;;;;;;5071255;28;20048;-50
2022/03/14 05:11:32;;;;;;;25.48;15.80;;;8.90;99.90;;;;;;5070400;28;20060;-51
2022/03/14 05:13:59;;;;;;;24.58;17.10;;;8.90;99.90;;;;;;5070107;28;20029;-51
2022/03/14 05:16:25;;;;;;;23.23;16.30;;;8.90;99.90;;;;;;5071036;28;20036;-51
2022/03/14 05:18:51;;;;;;;21.60;17.05;;;9.00;99.90;;;;;;5074112;28;20032;-51
2022/03/14 05:21:16;;;;;;;24.98;16.55;;;9.00;99.90;;;;;;5073999;28;20085;-51
2022/03/14 05:23:42;;;;;;;22.58;15.32;;;9.10;99.90;;;;;;5074447;28;20020;-51
2022/03/14 05:26:08;;;;;;;21.40;15.82;;;9.00;99.90;;;;;;5074283;28;20028;-51
2022/03/14 05:28:34;;;;;;;19.20;14.82;;;9.00;99.90;;;;;;5073501;28;20029;-51
2022/03/14 05:31:00;;;;;;;25.63;14.82;;;9.00;99.90;;;;;;5073550;28;20029;-51
2022/03/14 05:33:25;;;;;;;26.95;14.65;;;8.90;99.90;;;;;;5073295;28;20032;-51
2022/03/14 05:35:52;;;;;;;20.27;15.82;;;8.90;99.90;;;;;;5073552;28;20062;-51
2022/03/14 05:38:17;;;;;;;24.33;15.00;;;8.80;99.90;;;;;;5073571;28;20582;-50
2022/03/14 05:40:43;;;;;;;20.63;14.88;;;8.90;99.90;;;;;;5073192;28;20026;-50
2022/03/14 05:43:10;;;;;;;24.85;14.30;;;8.90;99.90;;;;;;5073121;28;20029;-50
2022/03/14 05:45:36;;;;;;;19.13;14.27;;;8.90;99.90;;;;;;5073079;28;20047;-50
2022/03/14 05:48:03;;;;;;;21.58;13.85;;;8.90;99.90;;;;;;5073712;28;20046;-50
2022/03/14 05:50:28;;;;;;;22.33;14.48;;;8.80;99.90;;;;;;5072154;28;20039;-50
2022/03/14 05:52:54;;;;;;;17.73;13.40;;;8.80;99.90;;;;;;5073012;28;20025;-50
2022/03/14 05:55:20;;;;;;;16.52;12.32;;;8.80;99.90;;;;;;5074247;28;20020;-51
2022/03/14 05:57:46;;;;;;;22.25;13.25;;;8.80;99.90;;;;;;5073751;28;20024;-51
2022/03/14 06:00:13;;;;;;;27.05;13.63;;;8.70;99.90;;;;;;5073891;28;20474;-51
2022/03/14 06:02:45;;;;;;;17.10;11.52;;;8.80;99.90;;;;;;5073891;28;20036;-51
2022/03/14 06:05:11;;;;;;;18.45;11.98;;;8.80;99.90;;;;;;5073266;28;20028;-51
2022/03/14 06:07:36;;;;;;;16.38;10.32;;;8.80;99.90;;;;;;5073232;28;20057;-51
2022/03/14 06:10:02;;;;;;;21.65;11.50;;;8.80;99.90;;;;;;5073464;28;20103;-51
2022/03/14 06:12:30;;;;;;;20.05;11.73;;;8.70;99.90;;;;;;5073023;28;20390;-51
2022/03/14 06:14:58;;;;;;;19.02;11.85;;;8.70;99.90;;;;;;5073242;28;20017;-51
2022/03/14 06:17:25;;;;;;;24.48;10.60;;;8.70;99.90;;;;;;5073480;28;20025;-51
2022/03/14 06:19:51;;;;;;;19.90;10.90;;;8.60;99.90;;;;;;5073350;28;20021;-51
2022/03/14 06:22:22;;;;;;;20.52;10.73;;;8.50;99.90;;;;;;5072975;28;20028;-51
2022/03/14 06:24:48;;;;;;;19.02;9.27;;;8.60;99.90;;;;;;5073142;28;20537;-51
2022/03/14 06:27:22;;;;;;;17.85;9.30;;;8.60;99.90;;;;;;5073921;28;20151;-51
2022/03/14 06:29:48;;;;;;;16.90;10.23;;;8.60;99.90;;;;;;5073900;28;20017;-51
2022/03/14 06:32:15;;;;;;;15.52;8.82;;;8.50;99.90;;;;;;5073797;28;20147;-51
2022/03/14 06:34:41;;;;;;;15.15;8.25;;;8.50;99.90;;;;;;5073126;28;20410;-51
2022/03/14 06:37:07;;;;;;;17.55;8.95;;;8.50;99.90;;;;;;5072963;28;20032;-51
2022/03/14 06:39:35;;;;;;;15.52;8.82;;;8.50;99.90;;;;;;5073423;28;20515;-51
2022/03/14 06:42:03;;;;;;;18.83;9.25;;;8.50;99.90;;;;;;5072856;28;20043;-51
2022/03/14 06:44:29;;;;;;;15.10;8.05;;;8.60;99.90;;;;;;5072357;28;20033;-51
2022/03/14 06:46:55;;;;;;;17.20;8.27;;;8.60;99.90;;;;;;5083788;28;20035;-51
2022/03/14 06:49:21;;;;;;;14.40;7.68;;;8.70;99.90;;;;;;5093184;28;20046;-51
2022/03/14 06:51:47;;;;;;;16.35;7.85;;;8.70;99.90;;;;;;5079107;28;20040;-50
2022/03/14 06:54:14;;;;;;;20.55;8.55;;;8.70;99.90;;;;;;5080747;28;20056;-50
2022/03/14 06:56:42;;;;;;;15.18;7.88;;;8.70;99.90;;;;;;5080579;28;20271;-50
2022/03/14 06:59:07;;;;;;;13.80;7.50;;;8.70;99.90;;;;;;5077339;28;20044;-50
2022/03/14 07:01:34;;;;;;;14.23;8.18;;;8.80;99.90;;;;;;5078764;28;20485;-50
2022/03/14 07:04:00;;;;;;;17.73;8.35;;;8.70;99.90;;;;;;5077643;28;20064;-50
2022/03/14 07:06:25;;;;;;;15.52;8.27;;;8.70;99.90;;;;;;5085542;28;20061;-50
2022/03/14 07:08:51;;;;;;;14.48;7.85;;;8.70;99.90;;;;;;5078682;28;20032;-50
2022/03/14 07:11:16;;;;;;;16.85;8.70;;;8.70;99.90;;;;;;5078044;28;20096;-50
2022/03/14 07:13:42;;;;;;;17.50;8.23;;;8.80;99.90;;;;;;5071668;28;20040;-50
2022/03/14 07:16:08;;;;;;;11.88;7.15;;;8.70;99.90;;;;;;5071391;28;20037;-50
2022/03/14 07:18:34;;;;;;;14.90;7.90;;;8.80;99.90;;;;;;5068480;28;20028;-51
2022/03/14 07:21:00;;;;;;;17.35;7.65;;;8.80;99.90;;;;;;5074635;28;20481;-51
2022/03/14 07:23:26;;;;;;;13.07;7.53;;;8.80;99.90;;;;;;5074077;28;20028;-50
2022/03/14 07:25:51;;;;;;;17.80;7.55;;;8.80;99.90;;;;;;5069897;28;20931;-51
2022/03/14 07:28:18;;;;;;;17.52;7.50;;;8.90;99.90;;;;;;5071288;28;20043;-51
2022/03/14 07:30:44;;;;;;;12.82;6.97;;;9.10;99.90;;;;;;5072098;28;20035;-51
2022/03/14 07:33:10;;;;;;;13.45;6.65;;;9.30;99.90;;;;;;5072055;28;20151;-50
2022/03/14 07:35:36;;;;;;;19.27;7.65;;;9.40;99.90;;;;;;5077123;28;20032;-51
2022/03/14 07:38:03;;;;;;;15.32;7.22;;;9.40;99.90;;;;;;5069531;28;21098;-51
2022/03/14 07:40:29;;;;;;;18.92;8.13;;;9.30;99.90;;;;;;5082507;28;20024;-51
2022/03/14 07:42:59;;;;;;;15.57;8.52;;;9.20;99.90;;;;;;5071015;28;20101;-50
2022/03/14 07:45:26;;;;;;;16.40;7.13;;;9.20;99.90;;;;;;5066956;28;20262;-50
2022/03/14 07:47:56;;;;;;;14.90;8.07;;;9.00;99.90;;;;;;5067600;28;20039;-51
2022/03/14 07:50:22;;;;;;;24.50;8.90;;;8.80;99.90;;;;;;5076149;28;20116;-51
2022/03/14 07:52:48;;;;;;;17.55;8.20;;;8.70;99.90;;;;;;5068676;28;20058;-51
2022/03/14 07:55:14;;;;;;;19.13;8.25;;;8.60;99.90;;;;;;5072519;28;20021;-51
2022/03/14 07:57:41;;;;;;;17.08;8.63;;;8.50;99.90;;;;;;5067607;28;20107;-51
2022/03/14 08:00:11;;;;;;;21.00;8.98;;;8.60;99.90;;;;;;5070824;28;20044;-51
2022/03/14 08:02:38;;;;;;;14.05;7.57;;;8.60;99.90;;;;;;5069387;28;20042;-51
2022/03/14 08:05:05;;;;;;;15.45;7.78;;;8.60;99.90;;;;;;5068554;28;20125;-50
2022/03/14 08:07:31;;;;;;;17.63;7.68;;;8.70;99.90;;;;;;5070330;28;20108;-50
2022/03/14 08:09:58;;;;;;;19.52;7.80;;;8.80;99.90;;;;;;5071377;28;20513;-51
2022/03/14 08:12:23;;;;;;;17.45;6.65;;;8.90;99.90;;;;;;5069943;28;20017;-50
2022/03/14 08:14:50;;;;;;;18.70;7.57;;;9.00;99.90;;;;;;5068059;28;20125;-51
2022/03/14 08:17:18;;;;;;;13.57;7.05;;;9.10;99.90;;;;;;5073631;28;20082;-51
2022/03/14 08:19:44;;;;;;;13.35;7.00;;;9.20;99.90;;;;;;5073022;28;20039;-50
2022/03/14 08:22:10;;;;;;;17.73;7.35;;;9.40;99.90;;;;;;5073460;28;20185;-51
2022/03/14 08:24:36;;;;;;;20.75;7.22;;;9.40;99.90;;;;;;5071825;28;20115;-50
2022/03/14 08:27:02;;;;;;;16.77;7.18;;;9.40;99.90;;;;;;5073231;28;20047;-50
2022/03/14 08:29:28;;;;;;;19.67;7.72;;;9.30;99.90;;;;;;5071692;28;21253;-50
2022/03/14 08:31:57;;;;;;;16.65;8.02;;;9.30;99.90;;;;;;5067508;28;20039;-52
2022/03/14 08:34:22;;;;;;;12.68;7.10;;;9.30;99.90;;;;;;5071784;28;20419;-51
2022/03/14 08:36:48;;;;;;;17.88;6.85;;;9.40;99.90;;;;;;5080310;28;20032;-51
2022/03/14 08:39:13;;;;;;;16.38;7.10;;;9.30;99.90;;;;;;5076779;28;20421;-52
2022/03/14 08:41:40;;;;;;;15.60;6.13;;;9.50;99.90;;;;;;5076467;28;20035;-52
2022/03/14 08:44:09;;;;;;;16.52;5.75;;;9.50;99.90;;;;;;5076053;28;20024;-51
2022/03/14 08:46:35;;;;;;;15.18;6.63;;;9.50;99.90;;;;;;5075094;28;20039;-52
2022/03/14 08:49:01;;;;;;;14.13;6.75;;;9.60;99.90;;;;;;5076303;28;20020;-52
2022/03/14 08:51:28;;;;;;;14.57;7.03;;;9.50;99.90;;;;;;5073983;28;20131;-51
2022/03/14 08:53:53;;;;;;;17.52;6.25;;;9.70;99.90;;;;;;5078568;28;20036;-51
2022/03/14 08:56:19;;;;;;;15.77;6.50;;;9.60;99.90;;;;;;5074063;28;20033;-52
2022/03/14 08:58:45;;;;;;;19.38;7.72;;;9.70;99.90;;;;;;5075343;28;20070;-51
2022/03/14 09:01:11;;;;;;;27.85;7.78;;;9.70;99.90;;;;;;5079679;28;20730;-51
2022/03/14 09:03:37;;;;;;;15.27;7.10;;;9.80;99.90;;;;;;5077571;28;20113;-51
2022/03/14 09:06:03;;;;;;;17.98;6.68;;;9.80;99.90;;;;;;5077644;28;20091;-51
2022/03/14 09:08:29;;;;;;;21.65;6.85;;;9.90;99.90;;;;;;5077891;28;20028;-52
2022/03/14 09:10:55;;;;;;;17.52;6.15;;;9.90;99.90;;;;;;5079767;28;20733;-51
2022/03/14 09:13:23;;;;;;;17.88;7.15;;;9.90;99.90;;;;;;5076089;28;20031;-51
2022/03/14 09:15:49;;;;;;;16.65;6.78;;;10.00;99.90;;;;;;5073948;28;20059;-52
2022/03/14 09:18:15;;;;;;;16.92;6.68;;;9.90;99.90;;;;;;5071728;28;20060;-52
2022/03/14 09:20:42;;;;;;;17.83;6.32;;;10.10;99.90;;;;;;5078072;28;20080;-52
2022/03/14 09:23:09;;;;;;;13.45;6.25;;;10.00;99.90;;;;;;5073383;28;20054;-51
2022/03/14 09:25:35;;;;;;;20.83;6.75;;;10.20;99.90;;;;;;5068934;28;20470;-51
2022/03/14 09:28:00;;;;;;;23.98;5.85;;;10.10;99.90;;;;;;5070264;28;20157;-51
2022/03/14 09:30:26;;;;;;;19.17;6.50;;;10.10;99.90;;;;;;5068700;28;20472;-51
2022/03/14 09:32:53;;;;;;;24.52;7.07;;;10.10;99.90;;;;;;5066679;28;20039;-51
2022/03/14 09:35:21;;;;;;;17.27;6.22;;;10.20;99.90;;;;;;5073640;28;20032;-52
2022/03/14 09:37:47;;;;;;;19.38;5.85;;;10.20;99.90;;;;;;5068852;28;20032;-52
2022/03/14 09:40:22;;;;;;;21.88;5.65;;;10.20;99.90;;;;;;5082075;28;20028;-51
2022/03/14 09:42:51;;;;;;;18.42;6.03;;;10.20;99.90;;;;;;5081789;28;20484;-52
2022/03/14 09:45:19;;;;;;;30.30;7.10;;;10.10;99.90;;;;;;5082641;28;20032;-52
2022/03/14 09:47:47;;;;;;;27.73;7.15;;;10.20;99.90;;;;;;5099717;28;20126;-52
2022/03/14 09:50:26;;;;;;;37.53;6.80;;;10.30;99.90;;;;;;5076739;28;20016;-52
2022/03/14 09:52:54;;;;;;;22.25;6.47;;;10.30;99.90;;;;;;5081733;28;20094;-52
2022/03/14 09:55:20;;;;;;;29.80;6.10;;;10.40;99.90;;;;;;5077519;28;20463;-52
2022/03/14 09:57:47;;;;;;;20.58;6.22;;;10.40;99.90;;;;;;5076124;28;20143;-52
2022/03/14 10:00:13;;;;;;;16.00;5.85;;;10.30;99.90;;;;;;5077953;28;20402;-52
2022/03/14 10:02:39;;;;;;;22.75;6.15;;;10.20;99.90;;;;;;5080530;28;20035;-51
2022/03/14 10:05:08;;;;;;;22.85;6.20;;;10.20;99.90;;;;;;5077890;28;20048;-51
2022/03/14 10:07:39;;;;;;;21.63;5.72;;;10.40;99.90;;;;;;5083136;28;20052;-52
2022/03/14 10:10:05;;;;;;;19.65;5.20;;;10.60;99.90;;;;;;5077354;28;20043;-52
2022/03/14 10:12:32;;;;;;;15.77;5.35;;;10.60;99.90;;;;;;5081451;28;20034;-54
2022/03/14 10:14:59;;;;;;;19.88;5.82;;;10.80;99.90;;;;;;5067899;28;20035;-53
2022/03/14 10:17:27;;;;;;;15.32;5.20;;;11.00;99.90;;;;;;5071954;28;20644;-54
2022/03/14 10:19:58;;;;;;;23.00;5.63;;;11.20;99.90;;;;;;5073111;28;20078;-54
2022/03/14 10:22:24;;;;;;;17.60;5.75;;;11.30;99.90;;;;;;5075115;28;20032;-54
2022/03/14 10:25:01;;;;;;;19.40;5.50;;;11.30;99.90;;;;;;5069297;28;20024;-54
2022/03/14 10:27:27;;;;;;;29.25;5.55;;;11.50;99.90;;;;;;5069333;28;20029;-54
2022/03/14 10:29:53;;;;;;;19.58;5.97;;;11.30;99.90;;;;;;5069933;28;20139;-54
2022/03/14 10:32:30;;;;;;;11.65;4.82;;;11.20;99.90;;;;;;5071431;28;20040;-54
2022/03/14 10:35:07;;;;;;;27.50;6.47;;;11.00;99.90;;;;;;5069588;28;20135;-53
2022/03/14 10:37:34;;;;;;;17.00;5.63;;;10.90;99.90;;;;;;5062120;28;20062;-53
2022/03/14 10:40:07;;;;;;;21.73;6.07;;;11.10;99.90;;;;;;5068886;28;20070;-53
2022/03/14 10:42:40;;;;;;;18.35;5.82;;;11.20;99.90;;;;;;5069243;28;20060;-53
2022/03/14 10:45:29;;;;;;;24.13;6.80;;;11.30;99.90;;;;;;5069729;28;20511;-54
2022/03/14 10:47:57;;;;;;;30.33;6.78;;;11.40;99.90;;;;;;5067365;28;20114;-54
2022/03/14 10:50:34;;;;;;;18.08;6.53;;;11.50;99.90;;;;;;5072244;28;20028;-53
2022/03/14 10:53:05;;;;;;;17.38;6.80;;;11.40;99.90;;;;;;5075153;28;20028;-54
2022/03/14 10:55:41;;;;;;;17.33;7.43;;;11.20;99.90;;;;;;5071527;28;20043;-54
2022/03/14 10:58:23;;;;;;;24.90;7.13;;;11.20;99.90;;;;;;5066927;28;20020;-54
2022/03/14 11:00:54;;;;;;;14.67;6.47;;;11.30;99.90;;;;;;5073684;28;20064;-54
2022/03/14 11:03:27;;;;;;;18.55;7.13;;;11.50;99.90;;;;;;5072644;28;20628;-54
2022/03/14 11:05:53;;;;;;;;;;;11.60;99.90;;;;;;5071809;28;20064;-53
2022/03/14 11:08:29;;;;;;;16.55;7.70;;;11.80;99.90;;;;;;5066930;28;19916;-54
2022/03/14 11:10:56;;;;;;;20.48;7.75;;;11.90;99.90;;;;;;5065637;28;20575;-54
2022/03/14 11:13:23;;;;;;;15.77;7.07;;;12.10;99.90;;;;;;5071599;28;20115;-53
2022/03/14 11:15:49;;;;;;;15.13;6.88;;;12.50;99.90;;;;;;5067414;28;20040;-54
2022/03/14 11:18:19;;;;;;;14.57;6.70;;;12.90;99.90;;;;;;5068833;28;20020;-54
2022/03/14 11:20:46;;;;;;;14.10;5.75;;;12.90;99.90;;;;;;5069082;28;20032;-54
2022/03/14 11:23:14;;;;;;;14.32;5.30;;;12.80;99.90;;;;;;5071100;28;20587;-54
2022/03/14 11:25:44;;;;;;;13.70;5.30;;;12.80;99.90;;;;;;5070542;28;20036;-54
2022/03/14 11:28:16;;;;;;;10.75;4.72;;;13.50;99.90;;;;;;5067948;28;20107;-53
2022/03/14 11:30:48;;;;;;;17.17;5.13;;;14.70;99.90;;;;;;5071510;28;20028;-54
2022/03/14 11:33:17;;;;;;;13.13;4.70;;;14.90;99.90;;;;;;5074655;28;20024;-54
2022/03/14 11:35:43;;;;;;;14.43;4.40;;;15.40;99.90;;;;;;5070547;28;20028;-54
2022/03/14 11:38:10;;;;;;;12.65;4.55;;;16.20;99.90;;;;;;5074629;28;20020;-55
2022/03/14 11:40:37;;;;;;;9.65;3.83;;;16.90;99.90;;;;;;5067532;28;20036;-54
2022/03/14 11:43:03;;;;;;;19.27;4.57;;;16.10;99.90;;;;;;5069996;28;20032;-53
2022/03/14 11:45:30;;;;;;;10.25;3.85;;;15.20;99.90;;;;;;5070110;28;21425;-52
2022/03/14 11:47:56;;;;;;;12.52;4.45;;;14.90;99.90;;;;;;5068109;28;20035;-52
2022/03/14 11:50:22;;;;;;;19.55;5.05;;;14.90;99.90;;;;;;5068667;28;20426;-53
2022/03/14 11:52:53;;;;;;;11.35;3.83;;;16.00;99.90;;;;;;5071079;28;20028;-53
2022/03/14 11:55:24;;;;;;;12.48;4.07;;;16.20;99.90;;;;;;5069347;28;20020;-52
2022/03/14 11:57:50;;;;;;;12.23;3.53;;;16.20;99.90;;;;;;5071461;28;20042;-54
2022/03/14 12:00:24;;;;;;;23.17;3.72;;;16.50;99.90;;;;;;5066140;28;20082;-53
2022/03/14 12:02:55;;;;;;;13.55;3.20;;;17.00;99.90;;;;;;5071611;28;20397;-54
2022/03/14 12:05:44;;;;;;;14.70;3.45;;;16.70;99.90;;;;;;5071887;28;20110;-54
2022/03/14 12:08:30;;;;;;;26.55;4.95;;;16.20;99.90;;;;;;5066680;28;20537;-53
2022/03/14 12:11:15;;;;;;;12.27;3.20;;;16.10;99.90;;;;;;5054921;28;20750;-54
2022/03/14 12:13:47;;;;;;;29.42;4.68;;;16.00;99.90;;;;;;5066978;28;20047;-53
2022/03/14 12:16:32;;;;;;;;;;;16.40;99.90;;;;;;5067795;28;20044;-53
2022/03/14 12:18:58;;;;;;;19.00;3.67;;;16.40;99.90;;;;;;5081253;28;19917;-53
2022/03/14 12:21:52;;;;;;;64.80;5.70;;;16.90;99.90;;;;;;5064686;28;20031;-53
2022/03/14 12:24:35;;;;;;;12.35;3.08;;;16.10;99.90;;;;;;5068873;28;20498;-53
2022/03/14 12:27:02;;;;;;;19.58;3.30;;;15.70;99.90;;;;;;5063314;28;20607;-53
2022/03/14 12:29:39;;;;;;;19.17;3.33;;;17.20;99.90;;;;;;5066891;28;20016;-53
2022/03/14 12:32:38;;;;;;;7.55;2.55;;;18.20;99.90;;;;;;5069714;28;20039;-53
2022/03/14 12:35:16;;;;;;;15.88;3.05;;;18.90;99.90;;;;;;5022556;28;20097;-53
2022/03/14 12:37:46;;;;;;;8.85;2.72;;;19.10;98.00;;;;;;5070605;28;20508;-53
2022/03/14 12:40:13;;;;;;;6.00;2.25;;;18.70;98.00;;;;;;5066809;28;20059;-53
2022/03/14 12:42:43;;;;;;;11.18;3.05;;;17.10;99.90;;;;;;5068258;28;20040;-54
2022/03/14 12:45:29;;;;;;;8.48;2.60;;;15.70;99.90;;;;;;5064238;28;20081;-53